createdAt,value
2023-02-08T00:01:25.622Z,15.30
2023-02-08T00:03:53.393Z,13.50
2023-02-08T00:06:21.246Z,13.73
2023-02-08T00:08:48.722Z,15.67
2023-02-08T00:11:16.121Z,15.33
2023-02-08T00:13:43.604Z,15.63
2023-02-08T00:16:13.923Z,15.37
2023-02-08T00:18:42.154Z,14.53
2023-02-08T00:21:16.565Z,16.47
2023-02-08T00:23:44.416Z,16.13
2023-02-08T00:26:11.936Z,16.70
2023-02-08T00:28:39.496Z,17.37
2023-02-08T00:31:07.695Z,15.93
2023-02-08T00:33:35.182Z,17.63
2023-02-08T00:36:06.061Z,17.63
2023-02-08T00:38:33.796Z,16.83
2023-02-08T00:41:01.378Z,17.80
2023-02-08T00:43:28.824Z,18.23
2023-02-08T00:45:58.515Z,18.57
2023-02-08T00:48:27.652Z,18.37
2023-02-08T00:51:09.579Z,20.47
2023-02-08T00:53:40.340Z,19.43
2023-02-08T00:56:09.852Z,18.93
2023-02-08T00:58:37.347Z,19.60
2023-02-08T01:01:06.361Z,20.33
2023-02-08T01:03:36.769Z,19.67
2023-02-08T01:06:07.784Z,18.97
2023-02-08T01:08:35.303Z,18.43
2023-02-08T01:11:14.536Z,19.13
2023-02-08T01:13:42.604Z,22.10
2023-02-08T01:16:18.957Z,23.50
2023-02-08T01:18:49.956Z,19.40
2023-02-08T01:21:21.588Z,21.17
2023-02-08T01:23:49.976Z,17.03
2023-02-08T01:26:20.038Z,16.73
2023-02-08T01:28:48.743Z,17.00
2023-02-08T01:31:20.705Z,17.43
2023-02-08T01:33:48.872Z,15.30
2023-02-08T01:36:16.809Z,13.93
2023-02-08T01:38:45.538Z,13.07
2023-02-08T01:41:27.049Z,11.90
2023-02-08T01:44:09.363Z,13.67
2023-02-08T01:46:42.766Z,12.53
2023-02-08T01:49:20.138Z,12.77
2023-02-08T01:52:01.463Z,13.27
2023-02-08T01:54:40.636Z,16.57
2023-02-08T01:57:08.619Z,13.70
2023-02-08T01:59:55.453Z,14.90
2023-02-08T02:02:24.495Z,10.50
2023-02-08T02:04:53.127Z,10.30
2023-02-08T02:07:23.070Z,9.70
2023-02-08T02:10:17.011Z,13.37
2023-02-08T02:12:45.933Z,14.30
2023-02-08T02:15:13.657Z,18.13
2023-02-08T02:17:41.319Z,15.83
2023-02-08T02:20:26.668Z,12.73
2023-02-08T02:23:24.233Z,17.10
2023-02-08T02:26:21.313Z,14.07
2023-02-08T02:29:12.932Z,11.57
2023-02-08T02:32:00.302Z,19.90
2023-02-08T02:35:10.800Z,17.70
2023-02-08T02:38:09.741Z,13.67
2023-02-08T02:41:38.236Z,9.50
2023-02-08T02:44:35.856Z,10.50
2023-02-08T02:47:32.344Z,7.90
2023-02-08T02:50:12.714Z,8.17
2023-02-08T02:53:18.287Z,8.37
2023-02-08T02:55:51.852Z,7.23
2023-02-08T02:58:22.550Z,6.93
2023-02-08T03:00:56.653Z,7.37
2023-02-08T03:03:28.633Z,7.23
2023-02-08T03:06:03.134Z,7.03
2023-02-08T03:09:00.712Z,6.50
2023-02-08T03:11:35.688Z,7.93
2023-02-08T03:14:34.143Z,9.73
2023-02-08T03:17:34.616Z,7.43
2023-02-08T03:20:26.419Z,7.30
2023-02-08T03:23:09.014Z,7.37
2023-02-08T03:26:36.479Z,7.50
2023-02-08T03:29:26.540Z,6.33
2023-02-08T03:32:01.313Z,7.03
2023-02-08T03:34:51.302Z,7.27
2023-02-08T03:38:16.077Z,7.70
2023-02-08T03:40:50.004Z,9.83
2023-02-08T03:43:28.524Z,10.27
2023-02-08T03:46:21.878Z,11.23
2023-02-08T03:49:00.010Z,7.60
2023-02-08T03:51:30.440Z,7.37
2023-02-08T03:54:01.446Z,8.47
2023-02-08T03:57:03.438Z,8.80
2023-02-08T03:59:39.078Z,7.70
2023-02-08T04:02:14.548Z,8.33
2023-02-08T04:04:48.090Z,6.63
2023-02-08T04:07:18.499Z,7.23
2023-02-08T04:09:46.126Z,7.60
2023-02-08T04:12:13.684Z,7.70
2023-02-08T04:14:41.171Z,7.87
2023-02-08T04:17:08.728Z,7.70
2023-02-08T04:19:36.151Z,8.70
2023-02-08T04:22:03.682Z,8.27
2023-02-08T04:24:31.228Z,8.20
2023-02-08T04:26:58.699Z,8.70
2023-02-08T04:29:26.264Z,8.17
2023-02-08T04:31:53.783Z,8.53
2023-02-08T04:34:21.286Z,9.03
2023-02-08T04:36:48.773Z,7.90
2023-02-08T04:39:16.191Z,9.33
2023-02-08T04:41:43.614Z,8.97
2023-02-08T04:44:11.010Z,8.83
2023-02-08T04:46:38.494Z,8.57
2023-02-08T04:49:05.905Z,8.80
2023-02-08T04:51:33.333Z,8.50
2023-02-08T04:54:00.735Z,8.43
2023-02-08T04:56:28.143Z,9.40
2023-02-08T04:58:55.559Z,10.93
2023-02-08T05:01:23.121Z,11.43
2023-02-08T05:03:50.901Z,14.80
2023-02-08T05:06:18.437Z,11.30
2023-02-08T05:08:45.910Z,15.27
2023-02-08T05:11:13.414Z,12.00
2023-02-08T05:13:40.896Z,10.57
2023-02-08T05:16:08.391Z,10.20
2023-02-08T05:18:35.874Z,11.13
2023-02-08T05:21:04.246Z,13.80
2023-02-08T05:23:32.323Z,34.77
2023-02-08T05:26:00.111Z,28.00
2023-02-08T05:28:27.766Z,19.23
2023-02-08T05:30:55.324Z,17.80
2023-02-08T05:33:22.786Z,16.33
2023-02-08T05:35:50.259Z,15.43
2023-02-08T05:38:17.650Z,22.07
2023-02-08T05:40:45.047Z,20.67
2023-02-08T05:43:12.460Z,19.20
2023-02-08T05:45:39.877Z,17.97
2023-02-08T05:48:07.393Z,19.83
2023-02-08T05:50:34.817Z,20.00
2023-02-08T05:53:02.189Z,18.30
2023-02-08T05:55:30.217Z,17.13
2023-02-08T05:57:57.589Z,16.03
2023-02-08T06:00:25.113Z,16.37
2023-02-08T06:02:52.957Z,14.87
2023-02-08T06:05:20.395Z,16.03
2023-02-08T06:07:47.854Z,15.63
2023-02-08T06:10:15.322Z,14.60
2023-02-08T06:12:42.770Z,15.70
2023-02-08T06:15:10.532Z,13.90
2023-02-08T06:17:38.079Z,14.73
2023-02-08T06:20:06.675Z,14.57
2023-02-08T06:22:37.610Z,14.53
2023-02-08T06:25:05.692Z,14.60
2023-02-08T06:27:33.288Z,14.63
2023-02-08T06:30:00.828Z,16.33
2023-02-08T06:32:28.311Z,15.83
2023-02-08T06:34:55.970Z,17.53
2023-02-08T06:37:23.652Z,15.97
2023-02-08T06:39:51.030Z,14.67
2023-02-08T06:42:18.420Z,15.37
2023-02-08T06:44:54.707Z,14.30
2023-02-08T06:47:23.750Z,13.47
2023-02-08T06:49:51.811Z,13.63
2023-02-08T06:52:20.110Z,12.60
2023-02-08T06:54:47.813Z,12.60
2023-02-08T06:57:15.443Z,11.73
2023-02-08T06:59:43.468Z,12.67
2023-02-08T07:02:19.651Z,12.97
2023-02-08T07:04:48.108Z,13.50
2023-02-08T07:07:17.302Z,13.50
2023-02-08T07:09:44.904Z,14.43
2023-02-08T07:12:12.541Z,19.47
2023-02-08T07:14:42.913Z,21.13
2023-02-08T07:17:12.494Z,19.53
2023-02-08T07:19:40.851Z,18.60
2023-02-08T07:22:08.652Z,18.90
2023-02-08T07:24:41.110Z,23.07
2023-02-08T07:27:11.278Z,22.53
2023-02-08T07:29:39.255Z,21.30
2023-02-08T07:32:08.454Z,23.70
2023-02-08T07:34:38.308Z,25.87
2023-02-08T07:37:05.809Z,26.97
2023-02-08T07:39:33.397Z,35.83
2023-02-08T07:42:00.934Z,45.50
2023-02-08T07:44:28.413Z,33.60
2023-02-08T07:46:55.930Z,26.83
2023-02-08T07:49:23.507Z,27.77
2023-02-08T07:51:50.962Z,25.63
2023-02-08T07:54:18.496Z,25.43
2023-02-08T07:56:46.048Z,28.13
2023-02-08T07:59:15.039Z,29.63
2023-02-08T08:01:42.751Z,42.30
2023-02-08T08:04:10.699Z,45.93
2023-02-08T08:06:38.347Z,54.77
2023-02-08T08:09:06.098Z,31.10
2023-02-08T08:11:33.533Z,25.77
2023-02-08T08:14:01.025Z,25.57
2023-02-08T08:16:29.989Z,25.83
2023-02-08T08:18:59.457Z,33.10
2023-02-08T08:21:26.964Z,51.37
2023-02-08T08:23:55.638Z,50.30
2023-02-08T08:26:23.143Z,35.97
2023-02-08T08:28:50.704Z,35.90
2023-02-08T08:31:21.723Z,37.77
2023-02-08T08:33:53.477Z,36.63
2023-02-08T08:36:21.775Z,32.93
2023-02-08T08:38:49.334Z,29.87
2023-02-08T08:41:22.510Z,26.57
2023-02-08T08:43:50.047Z,26.40
2023-02-08T08:46:18.048Z,25.57
2023-02-08T08:48:46.403Z,28.23
2023-02-08T08:51:14.461Z,28.77
2023-02-08T08:53:41.924Z,28.47
2023-02-08T08:56:09.432Z,25.30
2023-02-08T08:58:36.834Z,24.67
2023-02-08T09:01:04.453Z,24.30
2023-02-08T09:03:32.075Z,24.13
2023-02-08T09:05:59.780Z,25.23
2023-02-08T09:08:27.182Z,24.83
2023-02-08T09:10:54.637Z,24.00
2023-02-08T09:13:22.149Z,25.37
2023-02-08T09:15:50.671Z,25.50
2023-02-08T09:18:18.328Z,25.43
2023-02-08T09:20:46.071Z,24.63
2023-02-08T09:23:14.804Z,26.03
2023-02-08T09:25:42.342Z,25.47
2023-02-08T09:28:10.319Z,28.13
2023-02-08T09:30:38.302Z,26.77
2023-02-08T09:33:05.915Z,27.30
2023-02-08T09:35:33.458Z,21.37
2023-02-08T09:38:04.695Z,21.93
2023-02-08T09:40:48.201Z,20.97
2023-02-08T09:43:43.520Z,23.80
2023-02-08T09:46:22.734Z,21.33
2023-02-08T09:48:53.378Z,22.43
2023-02-08T09:51:33.220Z,25.93
2023-02-08T09:54:28.847Z,25.83
2023-02-08T09:56:58.678Z,23.83
2023-02-08T09:59:30.458Z,21.77
2023-02-08T10:02:28.060Z,20.40
2023-02-08T10:05:11.322Z,23.80
2023-02-08T10:07:41.943Z,19.03
2023-02-08T10:10:23.007Z,17.50
2023-02-08T10:13:14.509Z,17.73
2023-02-08T10:15:49.802Z,16.27
2023-02-08T10:18:32.268Z,15.63
2023-02-08T10:21:14.039Z,13.97
2023-02-08T10:24:10.503Z,14.73
2023-02-08T10:26:52.269Z,15.27
2023-02-08T10:29:32.914Z,15.33
2023-02-08T10:32:27.478Z,16.10
2023-02-08T10:35:08.709Z,15.63
2023-02-08T10:37:41.891Z,23.20
2023-02-08T10:40:26.664Z,20.40
2023-02-08T10:43:35.382Z,16.20
2023-02-08T10:46:30.261Z,19.40
2023-02-08T10:49:26.268Z,21.53
2023-02-08T10:51:54.183Z,24.23
2023-02-08T10:54:21.693Z,18.10
2023-02-08T10:57:19.178Z,18.13
2023-02-08T10:59:56.887Z,20.37
2023-02-08T11:02:28.861Z,27.67
2023-02-08T11:05:06.107Z,20.63
2023-02-08T11:07:36.505Z,19.43
2023-02-08T11:10:19.570Z,20.20
2023-02-08T11:13:03.929Z,19.03
2023-02-08T11:15:40.436Z,19.43
2023-02-08T11:18:28.112Z,18.77
2023-02-08T11:21:25.782Z,18.90
2023-02-08T11:23:56.027Z,17.23
2023-02-08T11:26:38.640Z,17.50
2023-02-08T11:29:20.884Z,17.27
2023-02-08T11:32:19.988Z,19.27
2023-02-08T11:34:49.074Z,17.70
2023-02-08T11:37:26.929Z,19.30
2023-02-08T11:40:01.320Z,16.33
2023-02-08T11:42:36.727Z,17.23
2023-02-08T11:45:06.317Z,18.67
2023-02-08T11:47:37.354Z,19.30
2023-02-08T11:50:07.929Z,19.53
2023-02-08T11:52:42.372Z,19.37
2023-02-08T11:55:27.405Z,20.30
2023-02-08T11:58:23.525Z,19.83
2023-02-08T12:01:02.838Z,18.97
2023-02-08T12:03:39.208Z,17.37
2023-02-08T12:06:24.617Z,18.37
2023-02-08T12:09:28.687Z,16.87
2023-02-08T12:12:17.884Z,19.63
2023-02-08T12:14:56.294Z,20.60
2023-02-08T12:17:53.952Z,18.17
2023-02-08T12:20:36.394Z,18.37
2023-02-08T12:23:17.171Z,19.00
2023-02-08T12:26:09.522Z,19.67
2023-02-08T12:29:07.489Z,19.47
2023-02-08T12:31:59.490Z,18.47
2023-02-08T12:35:18.781Z,16.77
2023-02-08T12:38:22.976Z,20.43
2023-02-08T12:40:59.653Z,17.93
2023-02-08T12:44:21.066Z,18.67
2023-02-08T12:47:39.192Z,16.43
2023-02-08T13:18:19.392Z,18.07
2023-02-08T13:21:12.082Z,18.23
2023-02-08T13:23:52.586Z,19.23
2023-02-08T13:26:31.595Z,18.93
2023-02-08T13:29:05.162Z,19.83
2023-02-08T13:31:39.515Z,21.37
2023-02-08T13:34:32.728Z,20.07
2023-02-08T13:37:08.865Z,18.60
2023-02-08T13:39:47.087Z,21.27
2023-02-08T13:42:33.817Z,20.73
2023-02-08T13:45:03.062Z,20.83
2023-02-08T13:47:52.302Z,19.10
2023-02-08T13:50:46.390Z,18.50
2023-02-08T13:53:17.449Z,17.57
2023-02-08T13:55:59.815Z,18.43
2023-02-08T13:58:58.115Z,17.63
2023-02-08T14:01:36.484Z,18.20
2023-02-08T14:04:12.348Z,18.83
2023-02-08T14:06:50.408Z,17.80
2023-02-08T14:09:37.025Z,17.57
2023-02-08T14:12:14.515Z,19.07
2023-02-08T14:14:41.966Z,18.40
2023-02-08T14:17:24.606Z,19.23
2023-02-08T14:20:04.019Z,19.83
2023-02-08T14:22:49.879Z,20.37
2023-02-08T14:25:23.022Z,19.27
2023-02-08T14:28:01.435Z,19.17
2023-02-08T14:30:36.622Z,19.17
2023-02-08T14:33:07.713Z,22.40
2023-02-08T14:35:43.726Z,19.23
2023-02-08T14:38:20.398Z,19.93
2023-02-08T14:40:57.293Z,19.27
2023-02-08T14:43:40.753Z,21.30
2023-02-08T14:46:39.400Z,21.67
2023-02-08T14:49:17.095Z,19.10
2023-02-08T14:52:07.427Z,19.33
2023-02-08T14:55:07.258Z,19.17
2023-02-08T14:57:38.080Z,21.23
2023-02-08T15:00:21.722Z,21.53
2023-02-08T15:02:50.520Z,24.93
2023-02-08T15:05:27.630Z,23.47
2023-02-08T15:07:58.552Z,20.00
2023-02-08T15:10:28.799Z,17.50
2023-02-08T15:13:06.620Z,18.70
2023-02-08T15:15:43.368Z,19.57
2023-02-08T15:18:23.105Z,18.57
2023-02-08T15:21:05.885Z,20.33
2023-02-08T15:23:33.593Z,19.97
2023-02-08T15:26:05.327Z,19.00
2023-02-08T15:28:36.528Z,21.00
2023-02-08T15:31:10.796Z,20.17
2023-02-08T15:33:40.573Z,20.27
2023-02-08T15:36:31.821Z,22.17
2023-02-08T15:39:20.580Z,21.90
2023-02-08T15:41:49.199Z,23.37
2023-02-08T15:44:30.353Z,22.37
2023-02-08T15:47:05.129Z,22.57
2023-02-08T15:49:43.156Z,23.60
2023-02-08T15:52:18.252Z,22.53
2023-02-08T15:54:46.518Z,23.10
2023-02-08T15:57:45.152Z,25.37
2023-02-08T16:00:24.762Z,36.63
2023-02-08T16:02:56.752Z,44.13
2023-02-08T16:05:31.692Z,42.83
2023-02-08T16:08:01.072Z,43.20
2023-02-08T16:10:28.433Z,46.03
2023-02-08T16:13:00.932Z,37.73
2023-02-08T16:15:42.138Z,35.07
2023-02-08T16:18:38.604Z,31.17
2023-02-08T16:21:42.619Z,39.47
2023-02-08T16:24:12.605Z,36.33
2023-02-08T16:27:16.948Z,39.97
2023-02-08T16:29:48.086Z,37.43
2023-02-08T16:32:39.732Z,38.20
2023-02-08T16:35:29.717Z,37.40
2023-02-08T16:38:02.233Z,55.03
2023-02-08T16:40:54.037Z,79.07
2023-02-08T16:43:33.620Z,72.90
2023-02-08T16:46:09.898Z,65.63
2023-02-08T16:48:52.463Z,64.70
2023-02-08T16:51:32.540Z,58.50
2023-02-08T16:54:11.837Z,42.80
2023-02-08T16:56:41.489Z,38.03
2023-02-08T16:59:11.720Z,36.83
2023-02-08T17:01:39.783Z,34.93
2023-02-08T17:04:07.399Z,31.60
2023-02-08T17:06:38.191Z,32.80
2023-02-08T17:09:09.181Z,31.10
2023-02-08T17:11:36.780Z,30.80
2023-02-08T17:14:08.028Z,32.73
2023-02-08T17:16:37.167Z,35.47
2023-02-08T17:19:05.227Z,33.73
2023-02-08T17:21:32.870Z,38.33
2023-02-08T17:24:01.726Z,37.63
2023-02-08T17:26:37.952Z,37.70
2023-02-08T17:29:06.006Z,36.93
2023-02-08T17:31:33.508Z,44.47
2023-02-08T17:34:07.009Z,44.10
2023-02-08T17:36:37.026Z,70.87
2023-02-08T17:39:05.924Z,88.73
2023-02-08T17:41:33.630Z,92.43
2023-02-08T17:44:01.159Z,87.17
2023-02-08T17:46:30.924Z,77.30
2023-02-08T17:49:03.815Z,64.07
2023-02-08T17:51:31.756Z,62.80
2023-02-08T17:53:59.591Z,55.00
2023-02-08T17:56:28.861Z,50.60
2023-02-08T17:58:56.654Z,53.03
2023-02-08T18:01:26.942Z,43.00
2023-02-08T18:03:55.222Z,47.67
2023-02-08T18:06:26.652Z,51.07
2023-02-08T18:08:57.242Z,58.53
2023-02-08T18:11:24.681Z,56.90
2023-02-08T18:13:54.482Z,52.40
2023-02-08T18:16:27.933Z,53.30
2023-02-08T18:18:57.738Z,61.23
2023-02-08T18:21:26.134Z,59.33
2023-02-08T18:23:55.490Z,64.90
2023-02-08T18:26:25.462Z,63.73
2023-02-08T18:28:53.415Z,66.07
2023-02-08T18:31:22.180Z,53.73
2023-02-08T18:33:50.563Z,59.30
2023-02-08T18:36:20.699Z,53.43
2023-02-08T18:38:52.081Z,54.97
2023-02-08T18:41:25.713Z,56.17
2023-02-08T18:43:56.385Z,43.33
2023-02-08T18:46:26.550Z,41.27
2023-02-08T18:48:54.401Z,40.83
2023-02-08T18:51:24.929Z,40.83
2023-02-08T18:53:55.392Z,38.97
2023-02-08T18:56:26.629Z,38.03
2023-02-08T18:58:58.146Z,38.50
2023-02-08T19:01:25.688Z,48.50
2023-02-08T19:03:54.595Z,45.47
2023-02-08T19:06:25.853Z,48.87
2023-02-08T19:08:56.086Z,43.10
2023-02-08T19:11:31.495Z,42.60
2023-02-08T19:14:01.992Z,42.37
2023-02-08T19:16:35.026Z,44.27
2023-02-08T19:19:04.401Z,47.53
2023-02-08T19:21:33.119Z,46.10
2023-02-08T19:24:02.230Z,51.30
2023-02-08T19:26:40.009Z,56.17
2023-02-08T19:29:13.519Z,66.53
2023-02-08T19:31:42.148Z,61.20
2023-02-08T19:34:11.582Z,61.67
2023-02-08T19:36:44.950Z,67.57
2023-02-08T19:39:17.526Z,61.87
2023-02-08T19:41:45.714Z,100.73
2023-02-08T19:44:17.663Z,105.03
2023-02-08T19:46:52.519Z,77.13
2023-02-08T19:49:20.710Z,61.03
2023-02-08T19:51:48.639Z,51.00
2023-02-08T19:54:18.664Z,48.97
2023-02-08T19:56:47.233Z,45.40
2023-02-08T19:59:28.285Z,41.87
2023-02-08T20:01:56.159Z,41.70
2023-02-08T20:04:24.266Z,38.00
2023-02-08T20:06:53.564Z,42.50
2023-02-08T20:09:21.758Z,39.40
2023-02-08T20:12:00.100Z,40.30
2023-02-08T20:14:31.390Z,43.57
2023-02-08T20:17:00.614Z,49.87
2023-02-08T20:19:28.570Z,58.70
2023-02-08T20:21:56.306Z,50.03
2023-02-08T20:24:23.752Z,47.37
2023-02-08T20:26:51.575Z,45.70
2023-02-08T20:29:19.086Z,47.40
2023-02-08T20:31:49.079Z,49.27
2023-02-08T20:34:19.048Z,45.63
2023-02-08T20:37:06.926Z,43.10
2023-02-08T20:39:36.644Z,44.60
2023-02-08T20:42:04.870Z,45.70
2023-02-08T20:44:32.472Z,42.80
2023-02-08T20:47:00.424Z,33.40
2023-02-08T20:49:28.489Z,44.37
2023-02-08T20:51:56.397Z,47.97
2023-02-08T20:54:27.204Z,51.93
2023-02-08T20:56:55.131Z,50.33
2023-02-08T20:59:22.690Z,53.83
2023-02-08T21:01:50.459Z,56.03
2023-02-08T21:04:20.442Z,63.17
2023-02-08T21:06:47.915Z,62.90
2023-02-08T21:09:18.073Z,73.37
2023-02-08T21:11:47.322Z,79.13
2023-02-08T21:14:20.976Z,78.50
2023-02-08T21:16:52.255Z,69.53
2023-02-08T21:19:21.005Z,67.20
2023-02-08T21:21:57.894Z,60.33
2023-02-08T21:24:26.425Z,58.50
2023-02-08T21:26:56.069Z,57.70
2023-02-08T21:29:24.342Z,61.13
2023-02-08T21:31:54.426Z,61.70
2023-02-08T21:34:22.634Z,62.30
2023-02-08T21:36:50.069Z,59.43
2023-02-08T21:39:17.489Z,53.47
2023-02-08T21:41:45.333Z,58.43
2023-02-08T21:44:12.780Z,49.90
2023-02-08T21:46:40.231Z,49.37
2023-02-08T21:49:26.302Z,45.50
2023-02-08T21:52:12.384Z,43.63
2023-02-08T21:54:42.687Z,46.13
2023-02-08T21:57:29.145Z,53.90
2023-02-08T22:00:05.156Z,64.53
2023-02-08T22:02:32.622Z,47.03
2023-02-08T22:05:22.090Z,44.43
2023-02-08T22:07:56.333Z,46.73
2023-02-08T22:11:04.812Z,44.00
2023-02-08T22:13:33.912Z,46.10
2023-02-08T22:16:02.631Z,45.53
2023-02-08T22:18:30.157Z,44.83
2023-02-08T22:20:57.639Z,46.13
2023-02-08T22:23:25.112Z,45.23
2023-02-08T22:25:52.741Z,47.00
2023-02-08T22:28:20.255Z,45.63
2023-02-08T22:30:48.878Z,44.27
2023-02-08T22:33:16.469Z,48.13
2023-02-08T22:35:43.956Z,46.13
2023-02-08T22:38:11.564Z,45.67
2023-02-08T22:40:42.504Z,46.00
2023-02-08T22:43:10.107Z,44.70
2023-02-08T22:45:37.527Z,46.03
2023-02-08T22:48:06.745Z,45.23
2023-02-08T22:50:34.538Z,44.73
2023-02-08T22:53:01.967Z,45.47
2023-02-08T22:55:29.563Z,44.77
2023-02-08T22:57:57.005Z,45.23
2023-02-08T23:00:24.497Z,44.50
2023-02-08T23:02:51.995Z,43.83
2023-02-08T23:05:19.572Z,44.10
2023-02-08T23:07:47.129Z,44.13
2023-02-08T23:10:14.742Z,43.53
2023-02-08T23:12:42.186Z,42.87
2023-02-08T23:15:11.715Z,42.03
2023-02-08T23:17:39.163Z,43.00
2023-02-08T23:20:07.216Z,42.63
2023-02-08T23:22:38.107Z,43.77
2023-02-08T23:25:06.124Z,42.80
2023-02-08T23:27:33.561Z,44.10
2023-02-08T23:30:01.456Z,43.60
2023-02-08T23:32:29.026Z,42.40
2023-02-08T23:34:56.506Z,44.17
2023-02-08T23:37:23.960Z,45.47
2023-02-08T23:39:51.463Z,45.63
2023-02-08T23:42:28.212Z,46.23
2023-02-08T23:44:58.134Z,46.60
2023-02-08T23:47:28.241Z,47.73
2023-02-08T23:49:55.778Z,47.07
2023-02-08T23:52:23.242Z,49.33
2023-02-08T23:54:50.878Z,46.87
2023-02-08T23:57:18.694Z,47.27
2023-02-08T23:59:46.227Z,50.13
